createdAt,value
2016-10-15T00:00:51.486Z,4.06
2016-10-15T00:01:51.504Z,4.07
2016-10-15T00:02:51.470Z,4.08
2016-10-15T00:03:51.459Z,4.24
2016-10-15T00:04:51.469Z,4.2
2016-10-15T00:05:51.434Z,4.36
2016-10-15T00:06:51.465Z,4.5
2016-10-15T00:07:51.406Z,4.44
2016-10-15T00:08:51.407Z,4.38
2016-10-15T00:09:51.386Z,4.28
2016-10-15T00:10:51.367Z,4.5
2016-10-15T00:11:51.378Z,4.53
2016-10-15T00:12:51.352Z,4.53
2016-10-15T00:13:51.340Z,4.47
2016-10-15T00:14:51.327Z,4.35
2016-10-15T00:15:51.317Z,4.38
2016-10-15T00:16:51.309Z,4.54
2016-10-15T00:17:51.286Z,4.57
2016-10-15T00:18:51.267Z,4.64
2016-10-15T00:19:51.284Z,4.56
2016-10-15T00:20:51.265Z,4.65
2016-10-15T00:21:51.267Z,4.5
2016-10-15T00:22:51.235Z,4.51
2016-10-15T00:23:51.240Z,4.51
2016-10-15T00:24:51.211Z,4.47
2016-10-15T00:25:51.206Z,4.38
2016-10-15T00:26:51.197Z,4.21
2016-10-15T00:27:51.185Z,4.18
2016-10-15T00:28:51.176Z,4.1
2016-10-15T00:29:51.154Z,3.81
2016-10-15T00:30:51.157Z,3.6
2016-10-15T00:31:51.141Z,3.28
2016-10-15T00:32:51.140Z,3.23
2016-10-15T00:33:51.131Z,3.1
2016-10-15T00:34:51.122Z,2.95
2016-10-15T00:35:51.104Z,2.9
2016-10-15T00:36:51.067Z,2.83
2016-10-15T00:37:51.052Z,2.68
2016-10-15T00:38:51.041Z,2.86
2016-10-15T00:39:51.044Z,3.12
2016-10-15T00:40:51.032Z,3.33
2016-10-15T00:41:51.003Z,3.45
2016-10-15T00:42:51.023Z,3.57
2016-10-15T00:43:51.007Z,3.71
2016-10-15T00:44:50.973Z,3.75
2016-10-15T00:45:50.992Z,3.67
2016-10-15T00:46:50.943Z,3.78
2016-10-15T00:47:50.926Z,3.96
2016-10-15T00:48:50.944Z,4.08
2016-10-15T00:49:50.909Z,4.17
2016-10-15T00:50:50.900Z,4.24
2016-10-15T00:51:50.884Z,4.32
2016-10-15T00:52:50.879Z,4.44
2016-10-15T00:53:50.875Z,4.26
2016-10-15T00:54:50.878Z,4.1
2016-10-15T00:55:50.850Z,4.04
2016-10-15T00:56:50.992Z,3.84
2016-10-15T00:57:50.828Z,3.86
2016-10-15T00:58:50.818Z,3.88
2016-10-15T00:59:50.808Z,3.82
2016-10-15T01:00:50.788Z,3.82
2016-10-15T01:01:50.774Z,3.92
2016-10-15T01:02:50.766Z,4.07
2016-10-15T01:03:50.739Z,4.07
2016-10-15T01:04:50.728Z,4.13
2016-10-15T01:05:50.752Z,4.08
2016-10-15T01:06:50.725Z,4.17
2016-10-15T01:07:50.717Z,4.2
2016-10-15T01:08:50.684Z,4.18
2016-10-15T01:09:50.696Z,4.18
2016-10-15T01:10:50.667Z,4.18
2016-10-15T01:11:50.667Z,4.11
2016-10-15T01:12:50.672Z,4.16
2016-10-15T01:13:50.637Z,4.18
2016-10-15T01:14:50.650Z,3.99
2016-10-15T01:15:50.623Z,3.95
2016-10-15T01:16:50.594Z,3.72
2016-10-15T01:17:50.615Z,3.56
2016-10-15T01:18:50.598Z,3.39
2016-10-15T01:19:50.582Z,3.44
2016-10-15T01:20:50.580Z,3.53
2016-10-15T01:21:50.558Z,3.44
2016-10-15T01:22:50.533Z,3.44
2016-10-15T01:23:50.516Z,3.42
2016-10-15T01:24:50.506Z,3.25
2016-10-15T01:25:50.519Z,3.25
2016-10-15T01:26:50.478Z,3.28
2016-10-15T01:27:50.480Z,3.26
2016-10-15T01:28:50.464Z,3.34
2016-10-15T01:29:50.436Z,3.39
2016-10-15T01:30:50.436Z,3.37
2016-10-15T01:31:50.427Z,3.46
2016-10-15T01:32:50.426Z,3.42
2016-10-15T01:33:50.392Z,3.42
2016-10-15T01:34:50.387Z,3.39
2016-10-15T01:35:50.399Z,3.35
2016-10-15T01:36:50.356Z,3.41
2016-10-15T01:37:50.369Z,3.41
2016-10-15T01:38:50.332Z,3.49
2016-10-15T01:39:50.330Z,3.59
2016-10-15T01:40:50.297Z,3.64
2016-10-15T01:41:50.311Z,3.59
2016-10-15T01:42:50.295Z,3.64
2016-10-15T01:43:50.275Z,3.75
2016-10-15T01:44:50.265Z,3.67
2016-10-15T01:45:50.235Z,3.71
2016-10-15T01:46:50.236Z,3.7
2016-10-15T01:47:50.238Z,3.71
2016-10-15T01:48:50.229Z,3.7
2016-10-15T01:49:50.213Z,3.72
2016-10-15T01:50:50.189Z,3.64
2016-10-15T01:51:50.194Z,3.63
2016-10-15T01:52:50.174Z,3.57
2016-10-15T01:53:50.168Z,3.56
2016-10-15T01:54:50.149Z,3.59
2016-10-15T01:55:50.127Z,3.52
2016-10-15T01:56:50.147Z,3.62
2016-10-15T01:57:50.447Z,3.64
2016-10-15T01:58:50.090Z,3.56
2016-10-15T01:59:50.103Z,3.59
2016-10-15T02:00:50.082Z,3.49
2016-10-15T02:01:50.058Z,3.5
2016-10-15T02:02:50.038Z,3.54
2016-10-15T02:03:50.044Z,3.6
2016-10-15T02:04:50.028Z,3.7
2016-10-15T02:05:50.029Z,3.62
2016-10-15T02:06:50.013Z,3.53
2016-10-15T02:07:49.985Z,3.42
2016-10-15T02:08:49.984Z,3.34
2016-10-15T02:09:49.981Z,3.42
2016-10-15T02:10:49.955Z,3.44
2016-10-15T02:11:49.960Z,3.46
2016-10-15T02:12:49.922Z,3.39
2016-10-15T02:13:49.919Z,3.37
2016-10-15T02:14:49.904Z,3.41
2016-10-15T02:15:49.881Z,3.45
2016-10-15T02:16:49.875Z,3.62
2016-10-15T02:17:49.848Z,3.7
2016-10-15T02:18:49.875Z,3.8
2016-10-15T02:19:49.820Z,3.95
2016-10-15T02:20:49.832Z,3.81
2016-10-15T02:21:49.802Z,3.93
2016-10-15T02:22:49.821Z,3.98
2016-10-15T02:23:49.809Z,4.02
2016-10-15T02:24:49.769Z,3.98
2016-10-15T02:25:49.776Z,3.84
2016-10-15T02:26:49.750Z,3.86
2016-10-15T02:27:49.737Z,3.82
2016-10-15T02:28:49.741Z,3.9
2016-10-15T02:29:49.702Z,3.95
2016-10-15T02:30:49.706Z,3.9
2016-10-15T02:31:49.695Z,4
2016-10-15T02:32:49.694Z,4
2016-10-15T02:33:49.671Z,4.02
2016-10-15T02:34:49.671Z,4.06
2016-10-15T02:35:49.639Z,3.98
2016-10-15T02:36:49.632Z,4.11
2016-10-15T02:37:49.635Z,4.11
2016-10-15T02:38:49.613Z,3.98
2016-10-15T02:39:49.590Z,3.99
2016-10-15T02:40:49.599Z,3.96
2016-10-15T02:41:49.561Z,4.02
2016-10-15T02:42:49.562Z,4
2016-10-15T02:43:49.561Z,4
2016-10-15T02:44:49.537Z,4.04
2016-10-15T02:45:49.517Z,4.02
2016-10-15T02:46:49.528Z,3.98
2016-10-15T02:47:49.491Z,4.14
2016-10-15T02:48:49.472Z,4.11
2016-10-15T02:49:49.483Z,4.07
2016-10-15T02:50:49.468Z,3.98
2016-10-15T02:51:49.450Z,3.95
2016-10-15T02:52:49.450Z,4.1
2016-10-15T02:53:49.428Z,4.18
2016-10-15T02:54:49.415Z,4.16
2016-10-15T02:55:49.393Z,4.13
2016-10-15T02:56:49.382Z,3.99
2016-10-15T02:57:49.363Z,3.98
2016-10-15T02:58:49.360Z,3.95
2016-10-15T02:59:49.339Z,4.04
2016-10-15T03:00:49.318Z,3.99
2016-10-15T03:01:49.309Z,3.99
2016-10-15T03:02:49.320Z,3.93
2016-10-15T03:03:49.297Z,4.02
2016-10-15T03:04:49.287Z,3.92
2016-10-15T03:05:49.258Z,3.86
2016-10-15T03:06:49.256Z,3.8
2016-10-15T03:07:49.263Z,3.88
2016-10-15T03:08:49.237Z,3.95
2016-10-15T03:09:49.217Z,3.99
2016-10-15T03:10:49.224Z,4
2016-10-15T03:11:49.192Z,3.98
2016-10-15T03:12:49.164Z,3.9
2016-10-15T03:13:49.171Z,3.82
2016-10-15T03:14:49.167Z,3.82
2016-10-15T03:15:49.148Z,3.86
2016-10-15T03:16:49.148Z,3.71
2016-10-15T03:17:49.115Z,3.7
2016-10-15T03:18:49.089Z,3.77
2016-10-15T03:19:49.098Z,3.81
2016-10-15T03:20:49.077Z,3.78
2016-10-15T03:21:49.060Z,3.59
2016-10-15T03:22:49.040Z,3.63
2016-10-15T03:23:49.035Z,3.53
2016-10-15T03:24:49.037Z,3.56
2016-10-15T03:25:49.022Z,3.59
2016-10-15T03:26:49.004Z,3.41
2016-10-15T03:27:48.977Z,3.46
2016-10-15T03:28:48.980Z,3.41
2016-10-15T03:29:48.977Z,3.42
2016-10-15T03:30:48.957Z,3.39
2016-10-15T03:31:48.927Z,3.37
2016-10-15T03:32:48.943Z,3.39
2016-10-15T03:33:48.929Z,3.39
2016-10-15T03:34:48.925Z,3.31
2016-10-15T03:35:48.889Z,3.41
2016-10-15T03:36:48.885Z,3.39
2016-10-15T03:37:48.873Z,3.49
2016-10-15T03:38:48.858Z,3.53
2016-10-15T03:39:48.847Z,3.41
2016-10-15T03:40:48.835Z,3.41
2016-10-15T03:41:48.818Z,3.34
2016-10-15T03:42:48.796Z,3.26
2016-10-15T03:43:48.814Z,3.26
2016-10-15T03:44:48.800Z,3.26
2016-10-15T03:45:48.782Z,3.19
2016-10-15T03:46:48.753Z,3.16
2016-10-15T03:47:48.763Z,3.08
2016-10-15T03:48:48.736Z,3.23
2016-10-15T03:49:48.714Z,3.1
2016-10-15T03:50:48.704Z,3.15
2016-10-15T03:51:48.710Z,3.12
2016-10-15T03:52:48.701Z,3.08
2016-10-15T03:53:48.675Z,3.16
2016-10-15T03:54:48.650Z,3.15
2016-10-15T03:55:48.641Z,2.95
2016-10-15T03:56:48.616Z,3.02
2016-10-15T03:57:48.602Z,3.01
2016-10-15T03:58:48.611Z,2.95
2016-10-15T03:59:48.593Z,2.95
2016-10-15T04:00:48.567Z,2.99
2016-10-15T04:01:48.567Z,2.97
2016-10-15T04:02:48.563Z,3.07
2016-10-15T04:03:48.791Z,3.08
2016-10-15T04:04:48.553Z,2.99
2016-10-15T04:05:48.523Z,2.94
2016-10-15T04:06:48.521Z,2.97
2016-10-15T04:07:48.496Z,2.99
2016-10-15T04:08:48.475Z,2.97
2016-10-15T04:09:48.449Z,2.86
2016-10-15T04:10:48.473Z,2.99
2016-10-15T04:11:48.456Z,2.99
2016-10-15T04:12:48.431Z,2.95
2016-10-15T04:13:48.412Z,2.89
2016-10-15T04:14:48.414Z,2.9
2016-10-15T04:15:48.401Z,2.9
2016-10-15T04:16:48.400Z,2.89
2016-10-15T04:17:48.348Z,3.02
2016-10-15T04:18:48.362Z,2.84
2016-10-15T04:19:48.340Z,2.89
2016-10-15T04:20:48.324Z,2.98
2016-10-15T04:21:48.306Z,2.95
2016-10-15T04:22:48.303Z,3.02
2016-10-15T04:23:48.289Z,2.99
2016-10-15T04:24:48.268Z,2.92
2016-10-15T04:25:48.257Z,2.97
2016-10-15T04:26:48.247Z,2.98
2016-10-15T04:27:48.237Z,2.89
2016-10-15T04:28:48.210Z,2.9
2016-10-15T04:29:48.210Z,2.86
2016-10-15T04:30:48.175Z,2.79
2016-10-15T04:31:48.196Z,2.77
2016-10-15T04:32:48.151Z,2.81
2016-10-15T04:33:48.148Z,2.79
2016-10-15T04:34:48.159Z,2.84
2016-10-15T04:35:48.148Z,2.84
2016-10-15T04:36:48.111Z,2.8
2016-10-15T04:37:48.090Z,2.89
2016-10-15T04:38:48.101Z,2.76
2016-10-15T04:39:48.092Z,2.79
2016-10-15T04:40:48.066Z,2.79
2016-10-15T04:41:48.052Z,2.8
2016-10-15T04:42:48.024Z,2.69
2016-10-15T04:43:48.019Z,2.71
2016-10-15T04:44:48.016Z,2.74
2016-10-15T04:45:47.993Z,2.63
2016-10-15T04:46:47.985Z,2.56
2016-10-15T04:47:47.972Z,2.4
2016-10-15T04:48:48.285Z,2.55
2016-10-15T04:49:47.960Z,2.5
2016-10-15T04:50:48.141Z,2.5
2016-10-15T04:51:47.933Z,2.5
2016-10-15T04:52:47.883Z,2.51
2016-10-15T04:53:47.879Z,2.51
2016-10-15T04:54:47.872Z,2.41
2016-10-15T04:55:47.865Z,2.41
2016-10-15T04:56:47.846Z,2.38
2016-10-15T04:57:47.818Z,2.5
2016-10-15T04:58:47.841Z,2.5
2016-10-15T04:59:47.810Z,2.38
2016-10-15T05:00:47.801Z,2.4
2016-10-15T05:01:47.771Z,2.38
2016-10-15T05:02:47.774Z,2.44
2016-10-15T05:03:47.770Z,2.43
2016-10-15T05:04:47.723Z,2.37
2016-10-15T05:05:47.747Z,2.43
2016-10-15T05:06:47.715Z,2.41
2016-10-15T05:07:47.695Z,2.32
2016-10-15T05:08:47.691Z,2.32
2016-10-15T05:09:47.676Z,2.27
2016-10-15T05:10:47.665Z,2.27
2016-10-15T05:11:47.655Z,2.43
2016-10-15T05:12:47.630Z,2.29
2016-10-15T05:13:47.643Z,2.38
2016-10-15T05:14:47.623Z,2.4
2016-10-15T05:15:47.584Z,2.4
2016-10-15T05:16:47.571Z,2.45
2016-10-15T05:17:47.577Z,2.5
2016-10-15T05:18:47.601Z,2.48
2016-10-15T05:19:47.562Z,2.56
2016-10-15T05:20:47.532Z,2.73
2016-10-15T05:21:47.544Z,2.86
2016-10-15T05:22:47.522Z,2.73
2016-10-15T05:23:47.499Z,2.65
2016-10-15T05:24:47.770Z,2.61
2016-10-15T05:25:47.450Z,2.71
2016-10-15T05:26:47.457Z,2.69
2016-10-15T05:27:47.453Z,2.55
2016-10-15T05:28:47.446Z,2.11
2016-10-15T05:29:47.420Z,1.88
2016-10-15T05:30:47.401Z,1.83
2016-10-15T05:31:47.372Z,1.85
2016-10-15T05:32:47.368Z,1.79
2016-10-15T05:33:47.346Z,1.79
2016-10-15T05:34:47.370Z,1.81
2016-10-15T05:35:47.357Z,1.75
2016-10-15T05:36:47.331Z,1.79
2016-10-15T05:37:47.316Z,1.65
2016-10-15T05:38:47.300Z,1.61
2016-10-15T05:39:47.311Z,1.74
2016-10-15T05:40:47.275Z,1.68
2016-10-15T05:41:47.267Z,1.7
2016-10-15T05:42:47.267Z,1.83
2016-10-15T05:43:47.242Z,1.92
2016-10-15T05:44:47.232Z,1.85
2016-10-15T05:45:47.209Z,1.85
2016-10-15T05:46:47.208Z,1.75
2016-10-15T05:47:47.181Z,1.71
2016-10-15T05:48:47.176Z,1.81
2016-10-15T05:49:47.162Z,1.89
2016-10-15T05:50:47.163Z,2
2016-10-15T05:51:47.138Z,2.18
2016-10-15T05:52:47.129Z,2.36
2016-10-15T05:53:47.115Z,2.63
2016-10-15T05:54:47.112Z,2.66
2016-10-15T05:55:47.079Z,2.55
2016-10-15T05:56:47.130Z,2.51
2016-10-15T05:57:47.046Z,2.44
2016-10-15T05:58:47.042Z,2.44
2016-10-15T05:59:47.020Z,2.55
2016-10-15T06:00:47.335Z,2.61
2016-10-15T06:01:47.029Z,2.63
2016-10-15T06:02:47.323Z,2.73
2016-10-15T06:03:46.974Z,2.9
2016-10-15T06:04:46.972Z,3.19
2016-10-15T06:05:46.951Z,3.34
2016-10-15T06:06:46.959Z,3.44
2016-10-15T06:07:46.936Z,3.39
2016-10-15T06:08:46.933Z,3.49
2016-10-15T06:09:46.911Z,3.49
2016-10-15T06:10:46.890Z,3.39
2016-10-15T06:11:46.901Z,3.37
2016-10-15T06:12:46.873Z,3.23
2016-10-15T06:13:46.870Z,3.15
2016-10-15T06:14:46.851Z,2.87
2016-10-15T06:15:46.839Z,2.79
2016-10-15T06:16:46.806Z,2.71
2016-10-15T06:17:46.821Z,2.77
2016-10-15T06:18:46.786Z,2.74
2016-10-15T06:19:46.767Z,2.66
2016-10-15T06:20:46.801Z,2.55
2016-10-15T06:21:46.748Z,2.38
2016-10-15T06:22:46.730Z,2.47
2016-10-15T06:23:46.754Z,2.83
2016-10-15T06:24:46.707Z,3.12
2016-10-15T06:25:46.704Z,2.89
2016-10-15T06:26:46.718Z,2.8
2016-10-15T06:27:46.679Z,3.13
2016-10-15T06:28:46.682Z,3.59
2016-10-15T06:29:46.668Z,4.18
2016-10-15T06:30:46.654Z,4.31
2016-10-15T06:31:46.618Z,4.75
2016-10-15T06:32:46.637Z,5.15
2016-10-15T06:33:46.611Z,4.74
2016-10-15T06:34:46.582Z,4.43
2016-10-15T06:35:46.599Z,4.72
2016-10-15T06:36:46.588Z,5.01
2016-10-15T06:37:46.562Z,4.87
2016-10-15T06:38:46.542Z,5.11
2016-10-15T06:39:46.522Z,4.8
2016-10-15T06:40:46.524Z,5.24
2016-10-15T06:41:46.515Z,5.37
2016-10-15T06:42:46.509Z,5.59
2016-10-15T06:43:46.497Z,5.52
2016-10-15T06:44:46.466Z,5.87
2016-10-15T06:45:46.457Z,6.24
2016-10-15T06:46:46.457Z,6.61
2016-10-15T06:47:46.450Z,6.96
2016-10-15T06:48:46.465Z,7.3
2016-10-15T06:49:46.416Z,7.73
2016-10-15T06:50:46.413Z,7.77
2016-10-15T06:51:46.387Z,7.74
2016-10-15T06:52:46.412Z,7.19
2016-10-15T06:53:46.378Z,6.73
2016-10-15T06:54:46.377Z,6.03
2016-10-15T06:55:46.375Z,5.8
2016-10-15T06:56:46.346Z,6.13
2016-10-15T06:57:46.341Z,6.58
2016-10-15T06:58:46.327Z,6.39
2016-10-15T06:59:46.304Z,6.33
2016-10-15T07:00:46.301Z,6.5
2016-10-15T07:01:46.291Z,7.01
2016-10-15T07:02:46.291Z,7.47
2016-10-15T07:03:46.268Z,7.55
2016-10-15T07:04:46.284Z,7.21
2016-10-15T07:05:46.258Z,7.55
2016-10-15T07:06:46.241Z,7.52
2016-10-15T07:07:46.234Z,7.58
2016-10-15T07:08:46.241Z,7.21
2016-10-15T07:09:46.238Z,6.97
2016-10-15T07:10:46.195Z,7.21
2016-10-15T07:11:46.204Z,7.12
2016-10-15T07:12:46.189Z,7
2016-10-15T07:13:46.178Z,6.69
2016-10-15T07:14:46.162Z,6.53
2016-10-15T07:15:46.164Z,6.33
2016-10-15T07:16:46.151Z,6.39
2016-10-15T07:17:46.167Z,6.08
2016-10-15T07:18:46.151Z,5.8
2016-10-15T07:19:46.122Z,5.69
2016-10-15T07:20:46.119Z,5.45
2016-10-15T07:21:46.107Z,5.23
2016-10-15T07:22:46.090Z,5.23
2016-10-15T07:23:46.104Z,5.37
2016-10-15T07:24:46.078Z,5.42
2016-10-15T07:25:46.059Z,5.48
2016-10-15T07:26:46.064Z,6.24
2016-10-15T07:27:46.038Z,6.43
2016-10-15T07:28:46.035Z,6.81
2016-10-15T07:29:46.032Z,6.79
2016-10-15T07:30:46.017Z,6.94
2016-10-15T07:31:46.005Z,7.01
2016-10-15T07:32:45.987Z,6.96
2016-10-15T07:33:45.962Z,7.09
2016-10-15T07:34:45.961Z,7.26
2016-10-15T07:35:45.948Z,7.14
2016-10-15T07:36:45.932Z,7.01
2016-10-15T07:37:45.944Z,6.97
2016-10-15T07:38:45.933Z,7.16
2016-10-15T07:39:45.915Z,7.57
2016-10-15T07:40:45.909Z,7.88
2016-10-15T07:41:45.896Z,8.36
2016-10-15T07:42:45.886Z,8.75
2016-10-15T07:43:45.883Z,8.68
2016-10-15T07:44:45.864Z,8.94
2016-10-15T07:45:45.844Z,8.61
2016-10-15T07:46:45.868Z,8.71
2016-10-15T07:47:45.849Z,8.39
2016-10-15T07:48:45.821Z,8.79
2016-10-15T07:49:45.814Z,9.04
2016-10-15T07:50:45.831Z,9.63
2016-10-15T07:51:45.804Z,9.91
2016-10-15T07:52:45.787Z,9.03
2016-10-15T07:53:45.781Z,8.64
2016-10-15T07:54:45.780Z,8.47
2016-10-15T07:55:45.774Z,8.12
2016-10-15T07:56:45.757Z,8.14
2016-10-15T07:57:45.753Z,8.36
2016-10-15T07:58:45.771Z,8.5
2016-10-15T07:59:45.721Z,8.8
2016-10-15T08:00:45.737Z,8.45
2016-10-15T08:01:45.720Z,8.28
2016-10-15T08:02:45.698Z,7.63
2016-10-15T08:03:45.715Z,7.74
2016-10-15T08:04:45.687Z,8.25
2016-10-15T08:05:45.706Z,9.03
2016-10-15T08:06:45.655Z,8.02
2016-10-15T08:07:45.660Z,6.33
2016-10-15T08:08:45.672Z,5.78
2016-10-15T08:09:45.657Z,6.03
2016-10-15T08:10:45.620Z,6.58
2016-10-15T08:11:45.624Z,6.83
2016-10-15T08:12:45.634Z,7.12
2016-10-15T08:13:45.606Z,7.41
2016-10-15T08:14:45.582Z,7.23
2016-10-15T08:15:45.591Z,6.32
2016-10-15T08:16:45.588Z,5.7
2016-10-15T08:17:45.561Z,5.42
2016-10-15T08:18:45.562Z,5.4
2016-10-15T08:19:45.550Z,5.9
2016-10-15T08:20:45.542Z,5.98
2016-10-15T08:21:45.533Z,6.01
2016-10-15T08:22:45.544Z,5.99
2016-10-15T08:23:45.716Z,6.28
2016-10-15T08:24:45.513Z,6.4
2016-10-15T08:25:45.511Z,6.51
2016-10-15T08:26:45.490Z,6.53
2016-10-15T08:27:45.477Z,6.4
2016-10-15T08:28:45.487Z,6.48
2016-10-15T08:29:45.481Z,6.69
2016-10-15T08:30:45.462Z,6.9
2016-10-15T08:31:45.453Z,6.99
2016-10-15T08:32:45.424Z,7.14
2016-10-15T08:33:45.416Z,7.19
2016-10-15T08:34:45.423Z,7.09
2016-10-15T08:35:45.400Z,6.82
2016-10-15T08:36:45.407Z,6.69
2016-10-15T08:37:45.387Z,6.48
2016-10-15T08:38:45.380Z,6.03
2016-10-15T08:39:45.370Z,5.85
2016-10-15T08:40:45.341Z,6.1
2016-10-15T08:41:45.359Z,6.17
2016-10-15T08:42:45.326Z,6.45
2016-10-15T08:43:45.330Z,6.02
2016-10-15T08:44:45.317Z,5.81
2016-10-15T08:45:45.319Z,5.87
2016-10-15T08:46:45.304Z,5.66
2016-10-15T08:47:45.282Z,5.78
2016-10-15T08:48:45.277Z,6.03
2016-10-15T08:49:45.271Z,6.24
2016-10-15T08:50:45.261Z,6.28
2016-10-15T08:51:45.267Z,6.05
2016-10-15T08:52:45.251Z,6.57
2016-10-15T08:53:45.224Z,6.24
2016-10-15T08:54:45.217Z,6.36
2016-10-15T08:55:45.218Z,6.72
2016-10-15T08:56:45.204Z,7.48
2016-10-15T08:57:45.200Z,7.45
2016-10-15T08:58:45.176Z,7
2016-10-15T08:59:45.187Z,7.24
2016-10-15T09:00:45.170Z,7.29
2016-10-15T09:01:45.161Z,7.48
2016-10-15T09:02:45.157Z,7.74
2016-10-15T09:03:45.127Z,7.89
2016-10-15T09:04:45.139Z,8.71
2016-10-15T09:05:45.095Z,9.48
2016-10-15T09:06:45.094Z,10.22
2016-10-15T09:07:45.096Z,10.88
2016-10-15T09:08:45.108Z,11.38
2016-10-15T09:09:45.077Z,11.75
2016-10-15T09:10:45.081Z,11.77
2016-10-15T09:11:45.070Z,11.27
2016-10-15T09:12:45.050Z,10.68
2016-10-15T09:13:45.058Z,9.23
2016-10-15T09:14:45.051Z,7.45
2016-10-15T09:15:45.037Z,6.13
2016-10-15T09:16:45.022Z,5.77
2016-10-15T09:17:45.014Z,5.92
2016-10-15T09:18:45.007Z,6.72
2016-10-15T09:19:45.003Z,7.89
2016-10-15T09:20:45.087Z,9.17
2016-10-15T09:21:44.969Z,9.68
2016-10-15T09:22:44.979Z,9.56
2016-10-15T09:23:44.984Z,9.35
2016-10-15T09:24:44.977Z,9.74
2016-10-15T09:25:44.952Z,10.16
2016-10-15T09:26:44.942Z,10.24
2016-10-15T09:27:44.950Z,10.72
2016-10-15T09:28:44.939Z,11.19
2016-10-15T09:29:44.923Z,11.17
2016-10-15T09:30:44.935Z,10.62
2016-10-15T09:31:44.914Z,10.54
2016-10-15T09:32:44.900Z,10.54
2016-10-15T09:33:44.875Z,11.09
2016-10-15T09:34:44.886Z,11.75
2016-10-15T09:35:44.865Z,12.21
2016-10-15T09:36:44.906Z,12.66
2016-10-15T09:37:44.867Z,12.89
2016-10-15T09:38:44.854Z,12.94
2016-10-15T09:39:44.871Z,13.21
2016-10-15T09:40:44.848Z,13.59
2016-10-15T09:41:44.839Z,13.81
2016-10-15T09:42:44.821Z,14.09
2016-10-15T09:43:44.827Z,14.29
2016-10-15T09:44:44.830Z,13.99
2016-10-15T09:45:44.812Z,13.69
2016-10-15T09:46:44.813Z,13.41
2016-10-15T09:47:44.793Z,13.13
2016-10-15T09:48:44.789Z,13.1
2016-10-15T09:49:44.798Z,12.91
2016-10-15T09:50:44.803Z,13.03
2016-10-15T09:51:44.787Z,12.63
2016-10-15T09:52:44.772Z,12.36
2016-10-15T09:53:44.782Z,12.16
2016-10-15T09:54:44.763Z,12.16
2016-10-15T09:55:44.764Z,12.03
2016-10-15T09:56:44.746Z,12.07
2016-10-15T09:57:44.736Z,12.26
2016-10-15T09:58:44.737Z,12.61
2016-10-15T09:59:44.753Z,12.73
2016-10-15T10:00:44.758Z,12.34
2016-10-15T10:01:44.740Z,11.54
2016-10-15T10:02:44.720Z,10.94
2016-10-15T10:03:44.723Z,10.68
2016-10-15T10:04:44.733Z,10.75
2016-10-15T10:05:44.689Z,10.88
2016-10-15T10:06:44.724Z,10.93
2016-10-15T10:07:44.696Z,10.8
2016-10-15T10:08:44.674Z,9.86
2016-10-15T10:09:44.686Z,9.48
2016-10-15T10:10:44.666Z,8.49
2016-10-15T10:11:44.684Z,8.55
2016-10-15T10:12:44.690Z,8.37
2016-10-15T10:13:44.651Z,8.76
2016-10-15T10:14:44.648Z,8.67
2016-10-15T10:15:44.653Z,9.12
2016-10-15T10:16:44.635Z,9.52
2016-10-15T10:17:44.637Z,9.45
2016-10-15T10:18:44.634Z,8.04
2016-10-15T10:19:44.640Z,8.2
2016-10-15T10:20:44.613Z,8.31
2016-10-15T10:21:44.619Z,8.4
2016-10-15T10:22:44.610Z,9.01
2016-10-15T10:23:44.605Z,9.73
2016-10-15T10:24:44.573Z,10.17
2016-10-15T10:25:44.569Z,10.93
2016-10-15T10:26:44.562Z,11.41
2016-10-15T10:27:44.562Z,11.64
2016-10-15T10:28:44.646Z,12.13
2016-10-15T10:29:44.554Z,12.62
2016-10-15T10:30:44.556Z,12.74
2016-10-15T10:31:44.530Z,12.79
2016-10-15T10:32:44.542Z,13.04
2016-10-15T10:33:44.534Z,13.41
2016-10-15T10:34:44.516Z,13.54
2016-10-15T10:35:44.494Z,13.65
2016-10-15T10:36:44.523Z,13.88
2016-10-15T10:37:44.510Z,13.91
2016-10-15T10:38:44.493Z,13.98
2016-10-15T10:39:44.816Z,13.73
2016-10-15T10:40:44.477Z,13.87
2016-10-15T10:41:44.495Z,13.96
2016-10-15T10:42:44.488Z,14.29
2016-10-15T10:43:44.471Z,14.31
2016-10-15T10:44:44.449Z,14.31
2016-10-15T10:45:44.461Z,13.41
2016-10-15T10:46:44.458Z,12.91
2016-10-15T10:47:44.441Z,11.81
2016-10-15T10:48:44.445Z,11.6
2016-10-15T10:49:44.417Z,11.98
2016-10-15T10:50:44.449Z,12.38
2016-10-15T10:51:44.415Z,12.61
2016-10-15T10:52:44.426Z,12.54
2016-10-15T10:53:44.426Z,12.58
2016-10-15T10:54:44.413Z,12.55
2016-10-15T10:55:44.410Z,12.56
2016-10-15T10:56:44.384Z,11.81
2016-10-15T10:57:44.406Z,10.46
2016-10-15T10:58:44.407Z,8.98
2016-10-15T10:59:44.445Z,6.99
2016-10-15T11:00:44.373Z,7.5
2016-10-15T11:01:44.390Z,8.71
2016-10-15T11:02:44.355Z,9.32
2016-10-15T11:03:44.374Z,9.48
2016-10-15T11:04:44.548Z,9.62
2016-10-15T11:05:44.340Z,9.62
2016-10-15T11:06:44.336Z,9.48
2016-10-15T11:07:44.348Z,9.22
2016-10-15T11:08:44.336Z,9.1
2016-10-15T11:09:44.298Z,9.48
2016-10-15T11:10:44.311Z,9.45
2016-10-15T11:11:44.309Z,9.12
2016-10-15T11:12:44.300Z,8.97
2016-10-15T11:13:44.299Z,9.27
2016-10-15T11:14:44.292Z,9.77
2016-10-15T11:15:44.285Z,9.93
2016-10-15T11:16:44.262Z,10.35
2016-10-15T11:17:44.265Z,11.21
2016-10-15T11:18:44.240Z,12.03
2016-10-15T11:19:44.230Z,12.61
2016-10-15T11:20:44.294Z,13.07
2016-10-15T11:21:44.247Z,13.41
2016-10-15T11:22:44.227Z,13.65
2016-10-15T11:23:44.234Z,13.16
2016-10-15T11:24:44.193Z,12.07
2016-10-15T11:25:44.209Z,10.55
2016-10-15T11:26:44.496Z,9.83
2016-10-15T11:27:44.197Z,8.67
2016-10-15T11:28:44.199Z,8.61
2016-10-15T11:29:44.168Z,8.83
2016-10-15T11:30:44.177Z,8.89
2016-10-15T11:31:44.180Z,9.03
2016-10-15T11:32:44.164Z,9.62
2016-10-15T11:33:44.153Z,10.54
2016-10-15T11:34:44.157Z,11.12
2016-10-15T11:35:44.138Z,11.57
2016-10-15T11:36:44.136Z,12
2016-10-15T11:37:44.138Z,12.7
2016-10-15T11:38:44.135Z,12.92
2016-10-15T11:39:44.116Z,13.03
2016-10-15T11:40:44.107Z,12.63
2016-10-15T11:41:44.095Z,13.01
2016-10-15T11:42:44.088Z,12.66
2016-10-15T11:43:44.094Z,12.44
2016-10-15T11:44:44.081Z,11.96
2016-10-15T11:45:44.062Z,12.07
2016-10-15T11:46:44.086Z,10.55
2016-10-15T11:47:44.052Z,9.35
2016-10-15T11:48:44.071Z,8.64
2016-10-15T11:49:44.042Z,7.42
2016-10-15T11:50:44.064Z,6.36
2016-10-15T11:51:44.041Z,6.19
2016-10-15T11:52:44.031Z,6.33
2016-10-15T11:53:44.021Z,6.11
2016-10-15T11:54:44.009Z,6.39
2016-10-15T11:55:44.011Z,7.14
2016-10-15T11:56:44.001Z,8.03
2016-10-15T11:57:44.002Z,7.55
2016-10-15T11:58:43.981Z,7.26
2016-10-15T11:59:44.280Z,7.51
2016-10-15T12:00:43.965Z,7.34
2016-10-15T12:01:43.970Z,7.44
2016-10-15T12:02:43.948Z,7.77
2016-10-15T12:03:43.961Z,8.04
2016-10-15T12:04:43.951Z,7.88
2016-10-15T12:05:43.933Z,7.45
2016-10-15T12:06:43.919Z,6.76
2016-10-15T12:07:43.907Z,6.86
2016-10-15T12:08:43.934Z,6.69
2016-10-15T12:09:43.914Z,6.73
2016-10-15T12:10:43.870Z,6.93
2016-10-15T12:11:43.873Z,6.25
2016-10-15T12:12:43.963Z,5.48
2016-10-15T12:13:43.869Z,5.06
2016-10-15T12:14:43.855Z,5.02
2016-10-15T12:15:43.831Z,4.79
2016-10-15T12:16:43.843Z,4.2
2016-10-15T12:17:43.818Z,4.32
2016-10-15T12:18:43.831Z,4.57
2016-10-15T12:19:43.799Z,4.62
2016-10-15T12:20:43.802Z,4.67
2016-10-15T12:21:43.779Z,4.84
2016-10-15T12:22:43.783Z,5.41
2016-10-15T12:23:43.750Z,5.83
2016-10-15T12:24:43.738Z,6.3
2016-10-15T12:25:43.738Z,6.97
2016-10-15T12:26:43.722Z,7.3
2016-10-15T12:27:43.724Z,7.42
2016-10-15T12:28:43.709Z,6.83
2016-10-15T12:29:43.691Z,7.14
2016-10-15T12:30:43.697Z,7.29
2016-10-15T12:31:43.679Z,7.21
2016-10-15T12:32:43.677Z,7.07
2016-10-15T12:33:43.667Z,7.05
2016-10-15T12:34:43.652Z,7.54
2016-10-15T12:35:43.665Z,7.92
2016-10-15T12:36:43.640Z,8.07
2016-10-15T12:37:43.641Z,8.31
2016-10-15T12:38:43.621Z,7.6
2016-10-15T12:39:43.611Z,7.7
2016-10-15T12:40:43.603Z,7.73
2016-10-15T12:41:43.600Z,7.91
2016-10-15T12:42:43.571Z,8.02
2016-10-15T12:43:43.567Z,8.02
2016-10-15T12:44:43.546Z,8.12
2016-10-15T12:45:43.562Z,8.43
2016-10-15T12:46:43.550Z,8.36
2016-10-15T12:47:43.521Z,8.14
2016-10-15T12:48:43.532Z,8.14
2016-10-15T12:49:43.524Z,7.81
2016-10-15T12:50:43.504Z,7.3
2016-10-15T12:51:43.504Z,7.29
2016-10-15T12:52:43.499Z,7.33
2016-10-15T12:53:43.483Z,7.34
2016-10-15T12:54:43.484Z,7.05
2016-10-15T12:55:43.479Z,7.01
2016-10-15T12:56:43.448Z,6.68
2016-10-15T12:57:43.448Z,6.5
2016-10-15T12:58:43.437Z,6.27
2016-10-15T12:59:43.411Z,5.49
2016-10-15T13:00:43.405Z,5.14
2016-10-15T13:01:43.408Z,5.02
2016-10-15T13:02:43.389Z,4.88
2016-10-15T13:03:43.395Z,4.9
2016-10-15T13:04:43.404Z,5.27
2016-10-15T13:05:43.382Z,5.42
2016-10-15T13:06:43.351Z,5.74
2016-10-15T13:07:43.361Z,5.95
2016-10-15T13:08:43.356Z,5.95
2016-10-15T13:09:43.529Z,5.96
2016-10-15T13:10:43.338Z,5.98
2016-10-15T13:11:43.330Z,6.05
2016-10-15T13:12:43.307Z,6.08
2016-10-15T13:13:43.282Z,6.19
2016-10-15T13:14:43.330Z,6.65
2016-10-15T13:15:43.263Z,6.73
2016-10-15T13:16:43.307Z,6.6
2016-10-15T13:17:43.257Z,6.76
2016-10-15T13:18:43.243Z,7.01